Time;durP1;ratioP1;P1;durP2;ratioP2;P2;SDS_P1;SDS_P2;PMS_P1;PMS_P2;Temp;Humidity;BMP_temperature;BMP_pressure;BME280_temperature;BME280_humidity;BME280_pressure;Samples;Min_cycle;Max_cycle;Signal;HPM_P1;HPM_P2
2022/02/21 00:00:22;;;;;;;;;;;204.80;1817.60;;;;;;5103908;28;19903;-69
2022/02/21 00:02:49;;;;;;;;;;;204.80;1843.20;;;;;;5080791;28;19931;-69
2022/02/21 00:05:17;;;;;;;;;;;204.80;1792.00;;;;;;5104974;28;20380;-66
2022/02/21 00:07:44;;;;;;;;;;;204.80;1843.20;;;;;;5112251;28;19965;-71
2022/02/21 00:10:14;;;;;;;;;;;204.80;1843.20;;;;;;5114536;28;19949;-73
2022/02/21 00:12:43;;;;;;;;;;;204.90;1945.60;;;;;;5096776;28;19953;-58
2022/02/21 00:15:15;;;;;;;;;;;205.10;1868.80;;;;;;5114638;28;19904;-71
2022/02/21 00:17:44;;;;;;;;;;;205.20;1843.20;;;;;;5114447;28;19912;-58
2022/02/21 00:20:13;;;;;;;;;;;205.20;1817.60;;;;;;5114966;28;19911;-66
2022/02/21 00:22:42;;;;;;;;;;;205.30;1817.60;;;;;;5114436;28;19995;-58
2022/02/21 00:25:08;;;;;;;;;;;205.40;1792.00;;;;;;5095649;28;20445;-58
2022/02/21 00:27:37;;;;;;;;;;;205.40;1792.00;;;;;;5114450;28;20246;-58
2022/02/21 00:30:05;;;;;;;;;;;205.50;1766.40;;;;;;5114392;28;20315;-71
2022/02/21 00:32:34;;;;;;;;;;;205.50;1766.40;;;;;;5114023;28;19916;-72
2022/02/21 00:35:03;;;;;;;;;;;205.60;1766.40;;;;;;5114401;28;19958;-70
2022/02/21 00:37:31;;;;;;;;;;;205.60;1766.40;;;;;;5114545;28;19964;-61
2022/02/21 00:40:00;;;;;;;;;;;205.50;1766.40;;;;;;5114226;28;19904;-57
2022/02/21 00:42:27;;;;;;;;;;;205.60;1740.80;;;;;;5114255;28;19910;-58
2022/02/21 00:44:58;;;;;;;;;;;205.60;1740.80;;;;;;5114097;28;19965;-57
2022/02/21 00:47:28;;;;;;;;;;;205.60;1766.40;;;;;;5114299;28;19926;-67
2022/02/21 00:49:56;;;;;;;;;;;205.70;1766.40;;;;;;5114456;28;19904;-66
2022/02/21 00:52:24;;;;;;;;;;;230.40;1766.40;;;;;;5114205;28;19903;-65
2022/02/21 00:54:53;;;;;;;;;;;230.40;1766.40;;;;;;5113907;28;20345;-58
2022/02/21 00:57:22;;;;;;;;;;;230.40;1766.40;;;;;;5113987;28;20353;-58
2022/02/21 00:59:50;;;;;;;;;;;230.50;1766.40;;;;;;5113858;28;19904;-67
2022/02/21 01:02:18;;;;;;;;;;;230.60;1766.40;;;;;;5114253;28;19936;-58
2022/02/21 01:04:46;;;;;;;;;;;230.60;1766.40;;;;;;5113996;28;19933;-59
2022/02/21 01:07:12;;;;;;;;;;;230.60;1766.40;;;;;;5114113;28;20413;-58
2022/02/21 01:09:40;;;;;;;;;;;230.60;1740.80;;;;;;5115284;28;19939;-58
2022/02/21 01:12:09;;;;;;;;;;;230.60;1740.80;;;;;;5117874;28;19966;-59
2022/02/21 01:14:37;;;;;;;;;;;230.70;1740.80;;;;;;5117049;28;20291;-58
2022/02/21 01:17:06;;;;;;;;;;;230.70;1740.80;;;;;;5098775;28;20338;-58
2022/02/21 01:19:35;;;;;;;;;;;230.60;1740.80;;;;;;5117307;28;19910;-69
2022/02/21 01:22:05;;;;;;;;;;;230.70;1715.20;;;;;;5117532;28;19910;-69
2022/02/21 01:24:32;;;;;;;;;;;230.60;1740.80;;;;;;5116915;28;19935;-58
2022/02/21 01:27:01;;;;;;;;;;;230.60;1715.20;;;;;;5117351;28;19930;-65
2022/02/21 01:29:30;;;;;;;;;;;230.50;1715.20;;;;;;5117575;28;19911;-58
2022/02/21 01:31:55;;;;;;;;;;;230.50;1740.80;;;;;;5117167;28;19911;-69
2022/02/21 01:34:24;;;;;;;;;;;230.60;1715.20;;;;;;5116767;28;19989;-58
2022/02/21 01:36:55;;;;;;;;;;;230.50;1715.20;;;;;;5117225;28;19911;-57
2022/02/21 01:39:24;;;;;;;;;;;230.60;1715.20;;;;;;5117291;28;20353;-67
2022/02/21 01:41:53;;;;;;;;;;;230.60;1715.20;;;;;;5117128;28;19904;-59
2022/02/21 01:44:33;;;;;;;;;;;230.60;1715.20;;;;;;5116959;28;19904;-57
2022/02/21 01:47:02;;;;;;;;;;;230.60;1715.20;;;;;;5116862;28;19903;-58
2022/02/21 01:49:30;;;;;;;;;;;230.60;1715.20;;;;;;5116991;28;19926;-66
2022/02/21 01:51:56;;;;;;;;;;;230.60;1715.20;;;;;;5116894;28;19937;-59
2022/02/21 01:54:25;;;;;;;;;;;230.60;1715.20;;;;;;5116794;28;19903;-58
2022/02/21 01:56:53;;;;;;;;;;;230.50;1715.20;;;;;;5116289;28;19984;-71
2022/02/21 01:59:20;;;;;;;;;;;230.60;1715.20;;;;;;5116637;28;19904;-63
2022/02/21 02:01:48;;;;;;;;;;;230.60;1715.20;;;;;;5116876;28;19904;-71
2022/02/21 02:04:17;;;;;;;;;;;230.50;1740.80;;;;;;5097932;28;19904;-59
2022/02/21 02:06:52;;;;;;;;;;;230.60;1715.20;;;;;;5116934;28;19939;-70
2022/02/21 02:09:18;;;;;;;;;;;230.50;1740.80;;;;;;5116388;28;19904;-59
2022/02/21 02:11:47;;;;;;;;;;;230.50;1740.80;;;;;;5116026;28;19904;-72
2022/02/21 02:14:32;;;;;;;;;;;230.60;1715.20;;;;;;5116121;28;19904;-70
2022/02/21 02:17:02;;;;;;;;;;;230.60;1740.80;;;;;;5116476;28;20011;-69
2022/02/21 02:19:30;;;;;;;;;;;230.60;1715.20;;;;;;5097772;28;19904;-70
2022/02/21 02:22:06;;;;;;;;;;;230.60;1715.20;;;;;;5116470;28;19957;-72
2022/02/21 02:24:35;;;;;;;;;;;230.70;1740.80;;;;;;5116513;28;19904;-65
2022/02/21 02:27:03;;;;;;;;;;;230.60;1715.20;;;;;;5116796;28;19973;-72
2022/02/21 02:29:32;;;;;;;;;;;230.60;1740.80;;;;;;5116262;28;19903;-68
2022/02/21 02:32:00;;;;;;;;;;;230.60;1715.20;;;;;;5115728;28;19911;-64
2022/02/21 02:34:29;;;;;;;;;;;230.60;1715.20;;;;;;5116071;28;19911;-72
2022/02/21 02:36:58;;;;;;;;;;;230.60;1715.20;;;;;;5116010;28;19918;-70
2022/02/21 02:39:26;;;;;;;;;;;230.70;1689.60;;;;;;5115844;28;19903;-72
2022/02/21 02:41:55;;;;;;;;;;;230.60;1715.20;;;;;;5115985;28;19907;-72
2022/02/21 02:44:24;;;;;;;;;;;230.70;1715.20;;;;;;5115775;28;19911;-72
2022/02/21 02:46:52;;;;;;;;;;;230.70;1715.20;;;;;;5115974;28;19947;-72
2022/02/21 02:49:21;;;;;;;;;;;230.70;1715.20;;;;;;5115641;28;19912;-62
2022/02/21 02:51:49;;;;;;;;;;;230.70;1715.20;;;;;;5115761;28;19911;-70
2022/02/21 02:54:19;;;;;;;;;;;230.70;1715.20;;;;;;5115573;28;19947;-58
2022/02/21 02:56:46;;;;;;;;;;;230.70;1715.20;;;;;;5115779;28;19957;-68
2022/02/21 02:59:14;;;;;;;;;;;230.70;1689.60;;;;;;5115758;28;20349;-58
2022/02/21 03:01:43;;;;;;;;;;;230.70;1715.20;;;;;;5115659;28;19904;-69
2022/02/21 03:04:11;;;;;;;;;;;230.80;1715.20;;;;;;5115780;28;19981;-62
2022/02/21 03:06:40;;;;;;;;;;;230.80;1715.20;;;;;;5115523;28;19995;-58
2022/02/21 03:09:08;;;;;;;;;;;230.80;1715.20;;;;;;5115364;28;19903;-69
2022/02/21 03:11:37;;;;;;;;;;;230.80;1715.20;;;;;;5115234;28;19903;-58
2022/02/21 03:14:06;;;;;;;;;;;230.80;1715.20;;;;;;5115427;28;20029;-58
2022/02/21 03:16:34;;;;;;;;;;;230.80;1740.80;;;;;;5115379;28;19931;-69
2022/02/21 03:19:03;;;;;;;;;;;230.90;1715.20;;;;;;5115065;28;19917;-58
2022/02/21 03:21:32;;;;;;;;;;;230.80;1715.20;;;;;;5115252;28;19903;-68
2022/02/21 03:24:00;;;;;;;;;;;230.80;1740.80;;;;;;5115225;28;19903;-69
2022/02/21 03:26:29;;;;;;;;;;;230.90;1715.20;;;;;;5115147;28;20380;-68
2022/02/21 03:28:57;;;;;;;;;;;230.80;1715.20;;;;;;5115144;28;19957;-70
2022/02/21 03:31:26;;;;;;;;;;;230.80;1715.20;;;;;;5114867;28;19904;-73
2022/02/21 03:33:54;;;;;;;;;;;230.80;1715.20;;;;;;5114539;28;19918;-59
2022/02/21 03:36:23;;;;;;;;;;;230.80;1715.20;;;;;;5114735;28;20305;-71
2022/02/21 03:38:49;;;;;;;;;;;230.80;1715.20;;;;;;5114851;28;19970;-71
2022/02/21 03:41:17;;;;;;;;;;;230.80;1715.20;;;;;;5114914;28;20389;-69
2022/02/21 03:43:46;;;;;;;;;;;230.80;1689.60;;;;;;5114829;28;19958;-59
2022/02/21 03:46:15;;;;;;;;;;;230.80;1689.60;;;;;;5114665;28;19911;-59
2022/02/21 03:48:43;;;;;;;;;;;230.70;1689.60;;;;;;5114979;28;19912;-59
2022/02/21 03:51:12;;;;;;;;;;;230.70;1689.60;;;;;;5114867;28;19927;-69
2022/02/21 03:53:40;;;;;;;;;;;230.80;1689.60;;;;;;5114800;28;20404;-70
2022/02/21 03:56:09;;;;;;;;;;;230.70;1715.20;;;;;;5114510;28;19949;-70
2022/02/21 03:58:37;;;;;;;;;;;230.70;1689.60;;;;;;5114657;28;19934;-58
2022/02/21 04:01:06;;;;;;;;;;;230.80;1715.20;;;;;;5114565;28;19907;-70
2022/02/21 04:03:32;;;;;;;;;;;230.80;1715.20;;;;;;5114527;28;19928;-67
2022/02/21 04:06:00;;;;;;;;;;;230.80;1715.20;;;;;;5114648;28;19903;-68
2022/02/21 04:08:29;;;;;;;;;;;230.80;1715.20;;;;;;5114426;28;20479;-58
2022/02/21 04:10:58;;;;;;;;;;;230.90;1715.20;;;;;;5114463;28;19907;-70
2022/02/21 04:13:26;;;;;;;;;;;230.90;1715.20;;;;;;5114674;28;19984;-59
2022/02/21 04:15:55;;;;;;;;;;;230.80;1715.20;;;;;;5114364;28;19904;-59
2022/02/21 04:18:24;;;;;;;;;;;230.80;1740.80;;;;;;5114624;28;19975;-72
2022/02/21 04:20:53;;;;;;;;;;;230.80;1740.80;;;;;;5114392;28;19911;-72
2022/02/21 04:23:21;;;;;;;;;;;230.80;1740.80;;;;;;5114139;28;19943;-72
2022/02/21 04:25:50;;;;;;;;;;;230.90;1715.20;;;;;;5114209;28;20373;-72
2022/02/21 04:28:16;;;;;;;;;;;230.90;1715.20;;;;;;5114488;28;19908;-69
2022/02/21 04:30:45;;;;;;;;;;;230.90;1689.60;;;;;;5114473;28;19904;-59
2022/02/21 04:33:13;;;;;;;;;;;230.90;1689.60;;;;;;5114429;28;19922;-65
2022/02/21 04:35:42;;;;;;;;;;;230.90;1689.60;;;;;;5114440;28;20002;-59
2022/02/21 04:38:12;;;;;;;;;;;230.90;1689.60;;;;;;5114272;28;19915;-69
2022/02/21 04:40:41;;;;;;;;;;;230.90;1689.60;;;;;;5114292;28;19903;-69
2022/02/21 04:43:09;;;;;;;;;;;230.90;1689.60;;;;;;5114108;28;20438;-70
2022/02/21 04:45:37;;;;;;;;;;;230.90;1689.60;;;;;;5116612;28;19908;-69
2022/02/21 04:48:05;;;;;;;;;;;230.90;1689.60;;;;;;5118296;28;19903;-59
2022/02/21 04:50:34;;;;;;;;;;;230.80;1664.00;;;;;;5117994;28;19904;-58
2022/02/21 04:52:59;;;;;;;;;;;230.80;1664.00;;;;;;5118116;28;19981;-63
2022/02/21 04:55:28;;;;;;;;;;;230.80;1664.00;;;;;;5118047;28;20292;-71
2022/02/21 04:57:56;;;;;;;;;;;230.70;1664.00;;;;;;5118047;28;19912;-69
2022/02/21 05:00:22;;;;;;;;;;;230.80;1664.00;;;;;;5117946;28;19903;-67
2022/02/21 05:02:50;;;;;;;;;;;230.70;1664.00;;;;;;5117899;28;20006;-69
2022/02/21 05:05:18;;;;;;;;;;;230.80;1664.00;;;;;;5117898;28;19908;-70
2022/02/21 05:07:47;;;;;;;;;;;230.70;1689.60;;;;;;5117783;28;20307;-63
2022/02/21 05:10:16;;;;;;;;;;;230.80;1664.00;;;;;;5117612;28;19903;-68
2022/02/21 05:12:44;;;;;;;;;;;230.70;1664.00;;;;;;5117843;28;20250;-60
2022/02/21 05:15:13;;;;;;;;;;;230.70;1689.60;;;;;;5117667;28;19945;-68
2022/02/21 05:17:41;;;;;;;;;;;230.70;1664.00;;;;;;5117596;28;19912;-58
2022/02/21 05:20:10;;;;;;;;;;;230.70;1689.60;;;;;;5117836;28;19911;-70
2022/02/21 05:22:39;;;;;;;;;;;230.60;1664.00;;;;;;5117648;28;19903;-58
2022/02/21 05:25:05;;;;;;;;;;;230.60;1664.00;;;;;;5117423;28;19914;-69
2022/02/21 05:27:34;;;;;;;;;;;230.50;1689.60;;;;;;5117545;28;20261;-61
2022/02/21 05:30:04;;;;;;;;;;;230.50;1689.60;;;;;;5117244;28;20354;-60
2022/02/21 05:32:32;;;;;;;;;;;230.40;1689.60;;;;;;5117434;28;19922;-70
2022/02/21 05:35:02;;;;;;;;;;;230.50;1689.60;;;;;;5117316;28;19987;-69
2022/02/21 05:37:30;;;;;;;;;;;230.40;1664.00;;;;;;5117275;28;19918;-69
2022/02/21 05:39:59;;;;;;;;;;;230.40;1689.60;;;;;;5117006;28;20273;-59
2022/02/21 05:42:25;;;;;;;;;;;230.40;1664.00;;;;;;5117126;28;20391;-68
2022/02/21 05:44:53;;;;;;;;;;;205.70;1689.60;;;;;;5117284;28;19904;-59
2022/02/21 05:47:21;;;;;;;;;;;230.40;1689.60;;;;;;5117342;28;19947;-66
2022/02/21 05:49:47;;;;;;;;;;;205.70;1689.60;;;;;;5117008;28;19904;-58
2022/02/21 05:52:15;;;;;;;;;;;205.70;1689.60;;;;;;5116801;28;20341;-59
2022/02/21 05:54:44;;;;;;;;;;;230.40;1689.60;;;;;;5116611;28;19904;-69
2022/02/21 05:57:10;;;;;;;;;;;230.40;1689.60;;;;;;5117030;28;19912;-58
2022/02/21 05:59:36;;;;;;;;;;;230.40;1689.60;;;;;;5116785;28;19940;-60
2022/02/21 06:02:04;;;;;;;;;;;230.40;1689.60;;;;;;5116861;28;19908;-62
2022/02/21 06:04:30;;;;;;;;;;;230.40;1689.60;;;;;;5116452;28;19960;-66
2022/02/21 06:06:59;;;;;;;;;;;230.40;1689.60;;;;;;5116781;28;19903;-68
2022/02/21 06:09:26;;;;;;;;;;;230.50;1689.60;;;;;;5116504;28;20277;-68
2022/02/21 06:11:54;;;;;;;;;;;230.50;1689.60;;;;;;5117131;28;19904;-69
2022/02/21 06:14:23;;;;;;;;;;;230.40;1689.60;;;;;;5116611;28;19926;-63
2022/02/21 06:16:52;;;;;;;;;;;230.40;1689.60;;;;;;5116729;28;19904;-59
2022/02/21 06:19:20;;;;;;;;;;;230.40;1715.20;;;;;;5116350;28;19908;-60
2022/02/21 06:21:49;;;;;;;;;;;230.50;1715.20;;;;;;5116462;28;19950;-59
2022/02/21 06:24:18;;;;;;;;;;;230.40;1689.60;;;;;;5116160;28;20364;-69
2022/02/21 06:26:46;;;;;;;;;;;230.50;1689.60;;;;;;5097623;28;19904;-66
2022/02/21 06:29:15;;;;;;;;;;;230.50;1689.60;;;;;;5116060;28;19903;-69
2022/02/21 06:31:44;;;;;;;;;;;230.50;1689.60;;;;;;5115981;28;19912;-58
2022/02/21 06:34:09;;;;;;;;;;;230.50;1715.20;;;;;;5116530;28;19926;-64
2022/02/21 06:36:38;;;;;;;;;;;230.50;1715.20;;;;;;5115990;28;20357;-61
2022/02/21 06:39:06;;;;;;;;;;;230.50;1715.20;;;;;;5116286;28;19918;-59
2022/02/21 06:41:35;;;;;;;;;;;230.50;1715.20;;;;;;5115929;28;19944;-68
2022/02/21 06:44:04;;;;;;;;;;;230.50;1715.20;;;;;;5116010;28;19911;-70
2022/02/21 06:46:32;;;;;;;;;;;230.50;1715.20;;;;;;5115923;28;19904;-59
2022/02/21 06:49:01;;;;;;;;;;;230.60;1715.20;;;;;;5115679;28;20353;-71
2022/02/21 06:51:29;;;;;;;;;;;230.60;1715.20;;;;;;5115833;28;20033;-59
2022/02/21 06:53:58;;;;;;;;;;;230.60;1715.20;;;;;;5115237;28;20253;-60
2022/02/21 06:56:26;;;;;;;;;;;230.60;1740.80;;;;;;5115827;28;19954;-58
2022/02/21 06:58:52;;;;;;;;;;;230.60;1740.80;;;;;;5115613;28;19957;-70
2022/02/21 07:01:20;;;;;;;;;;;230.60;1740.80;;;;;;5115647;28;20303;-61
2022/02/21 07:03:49;;;;;;;;;;;230.60;1740.80;;;;;;5115471;28;19903;-71
2022/02/21 07:06:17;;;;;;;;;;;230.70;1766.40;;;;;;5115351;28;19933;-71
2022/02/21 07:08:46;;;;;;;;;;;230.60;1766.40;;;;;;5114944;28;19956;-58
2022/02/21 07:11:15;;;;;;;;;;;230.70;1766.40;;;;;;5115396;28;19911;-72
2022/02/21 07:13:43;;;;;;;;;;;230.70;1766.40;;;;;;5115320;28;19986;-70
2022/02/21 07:16:12;;;;;;;;;;;230.70;1766.40;;;;;;5115177;28;19904;-69
2022/02/21 07:18:41;;;;;;;;;;;230.70;1792.00;;;;;;5115239;28;19957;-70
2022/02/21 07:21:09;;;;;;;;;;;230.80;1792.00;;;;;;5115205;28;19904;-65
2022/02/21 07:23:40;;;;;;;;;;;230.80;1817.60;;;;;;5115233;28;19998;-70
2022/02/21 07:26:09;;;;;;;;;;;230.90;1817.60;;;;;;5114836;28;20338;-59
2022/02/21 07:28:38;;;;;;;;;;;230.90;1843.20;;;;;;5115189;28;19908;-58
2022/02/21 07:31:06;;;;;;;;;;;231.00;1868.80;;;;;;5114924;28;19958;-59
2022/02/21 07:33:35;;;;;;;;;;;231.00;1868.80;;;;;;5114892;28;20006;-70
2022/02/21 07:36:04;;;;;;;;;;;231.00;1868.80;;;;;;5115132;28;19965;-59
2022/02/21 07:38:32;;;;;;;;;;;231.10;1894.40;;;;;;5114894;28;20010;-68
2022/02/21 07:40:58;;;;;;;;;;;231.20;1894.40;;;;;;5114903;28;20346;-68
2022/02/21 07:43:26;;;;;;;;;;;231.30;1894.40;;;;;;5114671;28;19911;-59
2022/02/21 07:45:53;;;;;;;;;;;256.00;1894.40;;;;;;5114574;28;19903;-63
2022/02/21 07:48:19;;;;;;;;;;;256.00;1894.40;;;;;;5109014;28;20312;-61
2022/02/21 07:50:45;;;;;;;;;;;256.10;1894.40;;;;;;5104360;28;19908;-64
2022/02/21 07:53:10;;;;;;;;;;;256.30;1894.40;;;;;;5104687;28;19904;-65
2022/02/21 07:55:36;;;;;;;;;;;256.30;1868.80;;;;;;5102968;28;19904;-64
2022/02/21 07:58:02;;;;;;;;;;;256.50;1868.80;;;;;;5104619;28;19923;-60
2022/02/21 08:00:28;;;;;;;;;;;256.60;1868.80;;;;;;5103986;28;19904;-64
2022/02/21 08:02:53;;;;;;;;;;;256.70;1868.80;;;;;;5103209;28;20256;-65
2022/02/21 08:05:19;;;;;;;;;;;256.90;1868.80;;;;;;5104799;28;19911;-65
2022/02/21 08:07:45;;;;;;;;;;;281.60;1868.80;;;;;;5103343;28;19915;-65
2022/02/21 08:10:11;;;;;;;;;;;281.70;1868.80;;;;;;5103602;28;19908;-65
2022/02/21 08:12:38;;;;;;;;;;;281.80;1868.80;;;;;;5105945;28;19999;-63
2022/02/21 08:15:05;;;;;;;;;;;281.90;1868.80;;;;;;5104368;28;19911;-64
2022/02/21 08:17:41;;;;;;;;;;;282.00;1843.20;;;;;;5103444;28;19994;-65
2022/02/21 08:20:09;;;;;;;;;;;282.10;1817.60;;;;;;5104994;28;19927;-65
2022/02/21 08:22:37;;;;;;;;;;;282.20;1843.20;;;;;;5107296;28;19911;-64
2022/02/21 08:25:06;;;;;;;;;;;282.20;1817.60;;;;;;5103936;28;19948;-66
2022/02/21 08:27:33;;;;;;;;;;;282.40;1843.20;;;;;;5107658;28;19958;-65
2022/02/21 08:30:00;;;;;;;;;;;282.50;1843.20;;;;;;5108816;28;19904;-61
2022/02/21 08:32:26;;;;;;;;;;;307.20;1843.20;;;;;;5107107;28;20369;-59
2022/02/21 08:34:55;;;;;;;;;;;307.30;1843.20;;;;;;5109597;28;19910;-64
2022/02/21 08:37:21;;;;;;;;;;;307.40;1868.80;;;;;;5112146;28;19912;-58
2022/02/21 08:39:47;;;;;;;;;;;307.50;1894.40;;;;;;5112213;28;19908;-70
2022/02/21 08:42:12;;;;;;;;;;;307.70;1843.20;;;;;;5102790;28;20407;-71
2022/02/21 08:44:40;;;;;;;;;;;307.70;1843.20;;;;;;5104860;28;19914;-63
2022/02/21 08:47:07;;;;;;;;;;;307.70;1817.60;;;;;;5111929;28;20298;-72
2022/02/21 08:49:33;;;;;;;;;;;307.80;1817.60;;;;;;5108027;28;19908;-68
2022/02/21 08:51:59;;;;;;;;;;;307.80;1792.00;;;;;;5117877;28;20424;-66
2022/02/21 08:54:25;;;;;;;;;;;307.90;1817.60;;;;;;5117923;28;19943;-71
2022/02/21 08:56:53;;;;;;;;;;;308.00;1792.00;;;;;;5117802;28;19911;-72
2022/02/21 08:59:19;;;;;;;;;;;308.10;1792.00;;;;;;5114797;28;19915;-64
2022/02/21 09:01:45;;;;;;;;;;;308.10;1792.00;;;;;;5108979;28;19956;-59
2022/02/21 09:04:12;;;;;;;;;;;332.80;1792.00;;;;;;5104945;28;19915;-68
2022/02/21 09:06:41;;;;;;;;;;;332.90;1792.00;;;;;;5111059;28;19908;-60
2022/02/21 09:09:06;;;;;;;;;;;333.00;1792.00;;;;;;5108867;28;19904;-59
2022/02/21 09:11:32;;;;;;;;;;;333.20;1766.40;;;;;;5117819;28;20368;-66
2022/02/21 09:13:57;;;;;;;;;;;333.30;1766.40;;;;;;5108321;28;20293;-61
2022/02/21 09:16:23;;;;;;;;;;;333.40;1766.40;;;;;;5108275;28;19915;-67
2022/02/21 09:18:49;;;;;;;;;;;333.50;1740.80;;;;;;5107811;28;19999;-66
2022/02/21 09:21:15;;;;;;;;;;;333.60;1740.80;;;;;;5099128;28;20357;-60
2022/02/21 09:23:40;;;;;;;;;;;333.60;1715.20;;;;;;5099559;28;19903;-68
2022/02/21 09:26:06;;;;;;;;;;;333.70;1689.60;;;;;;5106787;28;20328;-69
2022/02/21 09:28:34;;;;;;;;;;;358.40;1689.60;;;;;;5105568;28;19961;-61
2022/02/21 09:31:00;;;;;;;;;;;358.40;1689.60;;;;;;5106437;28;19914;-74
2022/02/21 09:33:26;;;;;;;;;;;358.50;1689.60;;;;;;5108731;28;19962;-59
2022/02/21 09:35:54;;;;;;;;;;;358.50;1664.00;;;;;;5104089;28;19914;-68
2022/02/21 09:38:20;;;;;;;;;;;358.60;1664.00;;;;;;5106033;28;19917;-64
2022/02/21 09:40:50;;;;;;;;;;;358.60;1638.40;;;;;;5104898;28;19907;-68
2022/02/21 09:43:20;;;;;;;;;;;358.60;1638.40;;;;;;5104493;28;19960;-59
2022/02/21 09:45:46;;;;;;;;;;;358.60;1612.80;;;;;;5102256;28;19908;-69
2022/02/21 09:48:13;;;;;;;;;;;358.70;1612.80;;;;;;5105043;28;20346;-59
2022/02/21 09:50:39;;;;;;;;;;;358.70;1638.40;;;;;;5106192;28;19904;-58
2022/02/21 09:53:07;;;;;;;;;;;358.80;1638.40;;;;;;5104450;28;19968;-71
2022/02/21 09:55:36;;;;;;;;;;;358.80;1612.80;;;;;;5106253;28;19931;-73
2022/02/21 09:58:04;;;;;;;;;;;358.90;1612.80;;;;;;5104312;28;19912;-71
2022/02/21 10:00:30;;;;;;;;;;;359.00;1638.40;;;;;;5100425;28;19908;-71
2022/02/21 10:02:56;;;;;;;;;;;359.10;1638.40;;;;;;5094811;28;19904;-80
2022/02/21 10:05:25;;;;;;;;;;;359.20;1612.80;;;;;;5103836;28;19908;-65
2022/02/21 10:07:52;;;;;;;;;;;359.30;1587.20;;;;;;5095549;28;19908;-61
2022/02/21 10:10:20;;;;;;;;;;;384.00;1561.60;;;;;;5097422;28;19916;-68
2022/02/21 10:12:50;;;;;;;;;;;384.20;1536.00;;;;;;5099832;28;19916;-68
2022/02/21 10:15:19;;;;;;;;;;;384.20;1536.00;;;;;;5102502;28;19907;-60
2022/02/21 10:17:47;;;;;;;;;;;384.40;1510.40;;;;;;5104950;28;19916;-58
2022/02/21 10:20:13;;;;;;;;;;;384.50;1510.40;;;;;;5100043;28;20325;-66
2022/02/21 10:22:59;;;;;;;;;;;384.60;1510.40;;;;;;5095269;28;19904;-65
2022/02/21 10:25:27;;;;;;;;;;;384.70;1484.80;;;;;;5095680;28;19939;-61
2022/02/21 10:27:58;;;;;;;;;;;384.80;1459.20;;;;;;5095753;28;20346;-69
2022/02/21 10:30:27;;;;;;;;;;;384.80;1459.20;;;;;;5095245;28;19950;-68
2022/02/21 10:32:55;;;;;;;;;;;384.90;1433.60;;;;;;5095364;28;20255;-69
2022/02/21 10:35:23;;;;;;;;;;;409.60;1459.20;;;;;;5095307;28;19904;-69
2022/02/21 10:37:58;;;;;;;;;;;409.70;1459.20;;;;;;5095040;28;19988;-61
2022/02/21 10:40:37;;;;;;;;;;;409.70;1459.20;;;;;;5095186;28;19911;-60
2022/02/21 10:43:17;;;;;;;;;;;409.80;1433.60;;;;;;5095350;28;19911;-64
2022/02/21 10:45:48;;;;;;;;;;;409.90;1433.60;;;;;;5094895;28;19904;-61
2022/02/21 10:48:20;;;;;;;;;;;409.90;1433.60;;;;;;5095469;28;20313;-62
2022/02/21 10:51:02;;;;;;;;;;;409.90;1433.60;;;;;;5095346;28;19908;-60
2022/02/21 10:53:38;;;;;;;;;;;410.00;1433.60;;;;;;5094861;28;19999;-60
2022/02/21 10:56:07;;;;;;;;;;;410.00;1408.00;;;;;;5076780;28;20361;-66
2022/02/21 10:58:35;;;;;;;;;;;410.10;1433.60;;;;;;5095130;28;19916;-60
2022/02/21 11:01:04;;;;;;;;;;;410.20;1433.60;;;;;;5094907;28;20308;-64
2022/02/21 11:03:33;;;;;;;;;;;410.30;1408.00;;;;;;5094776;28;19911;-67
2022/02/21 11:06:01;;;;;;;;;;;410.40;1408.00;;;;;;5094806;28;19951;-60
2022/02/21 11:08:29;;;;;;;;;;;410.40;1408.00;;;;;;5094879;28;20262;-60
2022/02/21 11:10:58;;;;;;;;;;;410.40;1408.00;;;;;;5094524;28;19904;-60
2022/02/21 11:13:32;;;;;;;;;;;410.40;1408.00;;;;;;5095025;28;19912;-65
2022/02/21 11:15:58;;;;;;;;;;;410.50;1408.00;;;;;;5094489;28;20012;-69
2022/02/21 11:18:27;;;;;;;;;;;410.50;1382.40;;;;;;5094877;28;20384;-60
2022/02/21 11:20:53;;;;;;;;;;;435.20;1408.00;;;;;;5094605;28;19904;-59
2022/02/21 11:23:21;;;;;;;;;;;435.20;1382.40;;;;;;5094560;28;20263;-59
2022/02/21 11:26:01;;;;;;;;;;;435.40;1382.40;;;;;;5094563;28;19904;-60
2022/02/21 11:28:37;;;;;;;;;;;435.50;1382.40;;;;;;5094957;28;20045;-60
2022/02/21 11:31:06;;;;;;;;;;;435.70;1305.60;;;;;;5094483;28;20403;-60
2022/02/21 11:33:59;;;;;;;;;;;435.80;1254.40;;;;;;5094497;28;19923;-60
2022/02/21 11:36:29;;;;;;;;;;;435.90;1228.80;;;;;;5090536;28;19939;-69
2022/02/21 11:38:57;;;;;;;;;;;435.90;1228.80;;;;;;5094719;28;19912;-62
2022/02/21 11:41:30;;;;;;;;;;;436.00;1203.20;;;;;;5094288;28;19904;-65
2022/02/21 11:44:17;;;;;;;;;;;436.00;1228.80;;;;;;5093962;28;19904;-60
2022/02/21 11:46:44;;;;;;;;;;;435.90;1203.20;;;;;;5094100;28;19939;-60
2022/02/21 11:49:25;;;;;;;;;;;435.90;1203.20;;;;;;5094432;28;19958;-60
2022/02/21 11:51:56;;;;;;;;;;;435.90;1203.20;;;;;;5094168;28;19911;-60
2022/02/21 11:54:27;;;;;;;;;;;436.00;1203.20;;;;;;5093589;28;19944;-60
2022/02/21 11:56:53;;;;;;;;;;;436.00;1203.20;;;;;;5094403;28;19910;-64
2022/02/21 11:59:25;;;;;;;;;;;435.90;1203.20;;;;;;5093667;28;20276;-60
2022/02/21 12:02:02;;;;;;;;;;;435.90;1177.60;;;;;;5094074;28;19943;-70
2022/02/21 12:04:45;;;;;;;;;;;436.00;1203.20;;;;;;5094091;28;19911;-70
2022/02/21 12:07:21;;;;;;;;;;;436.00;1177.60;;;;;;5093878;28;19910;-66
2022/02/21 12:10:24;;;;;;;;;;;435.80;1177.60;;;;;;5093919;28;19904;-70
2022/02/21 12:13:10;;;;;;;;;;;435.80;1177.60;;;;;;5012355;28;19906;-69
2022/02/21 12:15:59;;;;;;;;;;;435.80;1177.60;;;;;;5012163;28;20005;-67
2022/02/21 12:18:34;;;;;;;;;;;435.80;1177.60;;;;;;5012424;28;20033;-61
2022/02/21 12:21:28;;;;;;;;;;;435.80;1177.60;;;;;;5011840;28;19996;-60
2022/02/21 12:24:03;;;;;;;;;;;435.80;1177.60;;;;;;5011851;28;19906;-69
2022/02/21 12:26:39;;;;;;;;;;;435.80;1177.60;;;;;;5011632;28;19988;-61
2022/02/21 12:29:19;;;;;;;;;;;435.80;1203.20;;;;;;5011636;28;19997;-69
2022/02/21 12:31:58;;;;;;;;;;;435.80;1177.60;;;;;;5011703;28;19909;-65
2022/02/21 12:34:26;;;;;;;;;;;435.80;1177.60;;;;;;5011665;28;19928;-60
2022/02/21 12:36:55;;;;;;;;;;;435.80;1177.60;;;;;;5011310;28;19964;-59
2022/02/21 12:39:26;;;;;;;;;;;435.80;1177.60;;;;;;4995283;28;19913;-60
2022/02/21 12:41:54;;;;;;;;;;;435.80;1177.60;;;;;;5011724;28;19905;-60
2022/02/21 12:44:21;;;;;;;;;;;435.70;1177.60;;;;;;5011383;28;19906;-60
2022/02/21 12:46:53;;;;;;;;;;;435.80;1177.60;;;;;;5011756;28;19906;-60
2022/02/21 12:49:24;;;;;;;;;;;435.70;1177.60;;;;;;5086453;28;20316;-70
2022/02/21 12:52:06;;;;;;;;;;;435.70;1177.60;;;;;;5093261;28;19949;-69
2022/02/21 12:54:35;;;;;;;;;;;435.80;1177.60;;;;;;5093461;28;19904;-60
2022/02/21 12:57:04;;;;;;;;;;;435.70;1177.60;;;;;;5093693;28;20247;-60
2022/02/21 12:59:34;;;;;;;;;;;435.70;1177.60;;;;;;5093246;28;19915;-69
2022/02/21 13:02:04;;;;;;;;;;;435.70;1177.60;;;;;;5093559;28;19913;-76
2022/02/21 13:04:32;;;;;;;;;;;435.70;1177.60;;;;;;5093206;28;19911;-67
2022/02/21 13:06:59;;;;;;;;;;;435.60;1177.60;;;;;;5096655;28;20362;-61
2022/02/21 13:09:26;;;;;;;;;;;435.50;1203.20;;;;;;5097408;28;20269;-65
2022/02/21 13:11:54;;;;;;;;;;;435.40;1203.20;;;;;;5097308;28;19935;-67
2022/02/21 13:14:24;;;;;;;;;;;435.30;1203.20;;;;;;5096912;28;19904;-65
2022/02/21 13:16:51;;;;;;;;;;;435.30;1228.80;;;;;;5097084;28;19904;-61
2022/02/21 13:19:21;;;;;;;;;;;435.20;1203.20;;;;;;5096885;28;20274;-61
2022/02/21 13:21:49;;;;;;;;;;;435.20;1228.80;;;;;;5096915;28;20357;-60
2022/02/21 13:24:17;;;;;;;;;;;435.20;1228.80;;;;;;5097033;28;20243;-60
2022/02/21 13:26:50;;;;;;;;;;;435.20;1228.80;;;;;;5096782;28;20342;-60
2022/02/21 13:29:26;;;;;;;;;;;435.20;1203.20;;;;;;5096471;28;19954;-62
2022/02/21 13:31:56;;;;;;;;;;;435.20;1228.80;;;;;;5096867;28;19915;-61
2022/02/21 13:34:41;;;;;;;;;;;435.20;1228.80;;;;;;5096868;28;19904;-68
2022/02/21 13:37:11;;;;;;;;;;;435.20;1254.40;;;;;;5096515;28;20430;-68
2022/02/21 13:39:39;;;;;;;;;;;410.40;1254.40;;;;;;5096766;28;19911;-67
2022/02/21 13:42:14;;;;;;;;;;;410.30;1254.40;;;;;;5096308;28;19950;-68
2022/02/21 13:44:39;;;;;;;;;;;410.30;1254.40;;;;;;5096870;28;20297;-60
2022/02/21 13:47:06;;;;;;;;;;;410.30;1254.40;;;;;;5096920;28;19908;-68
2022/02/21 13:49:35;;;;;;;;;;;410.30;1280.00;;;;;;5096073;28;19904;-62
2022/02/21 13:52:04;;;;;;;;;;;410.30;1254.40;;;;;;5096349;28;19911;-59